Time;durP1;ratioP1;P1;durP2;ratioP2;P2;SDS_P1;SDS_P2;PMS_P1;PMS_P2;Temp;Humidity;BMP_temperature;BMP_pressure;BME280_temperature;BME280_humidity;BME280_pressure;Samples;Min_cycle;Max_cycle;Signal;HPM_P1;HPM_P2
2023/09/08 00:08:37;;;;;;;8.38;5.30;;;;;;;18.13;60.24;100732.69;20638422;28;20227;-79
2023/09/08 00:18:40;;;;;;;8.20;4.43;;;;;;;17.96;61.30;100738.78;20658154;28;20233;-79
2023/09/08 00:28:41;;;;;;;11.48;4.68;;;;;;;18.14;60.16;100728.66;20633306;28;20625;-80
2023/09/08 00:38:44;;;;;;;5.78;4.57;;;;;;;18.24;60.00;100731.75;20629755;28;20241;-79
2023/09/08 00:48:46;;;;;;;7.47;5.13;;;;;;;18.46;58.84;100735.06;20634404;28;20206;-79
2023/09/08 00:58:50;;;;;;;5.95;4.68;;;;;;;17.91;60.89;100729.31;20643938;28;20245;-79
2023/09/08 01:08:51;;;;;;;6.10;4.55;;;;;;;17.74;61.88;100738.22;20634352;28;20198;-78
2023/09/08 01:18:55;;;;;;;6.68;5.00;;;;;;;17.76;61.42;100741.53;20637977;28;20223;-78
2023/09/08 01:28:59;;;;;;;6.72;4.80;;;;;;;17.66;61.78;100724.19;20641343;28;20281;-79
2023/09/08 01:39:01;;;;;;;10.63;5.00;;;;;;;17.96;60.73;100727.38;20629458;28;20638;-80
2023/09/08 01:49:04;;;;;;;6.72;4.85;;;;;;;17.97;59.70;100718.47;20630073;28;20201;-80
2023/09/08 01:59:06;;;;;;;5.95;4.97;;;;;;;18.27;58.19;100715.94;20638977;28;20321;-80
2023/09/08 02:09:10;;;;;;;7.28;4.53;;;;;;;17.95;59.33;100714.34;20623459;28;20206;-78
2023/09/08 02:19:12;;;;;;;8.50;4.65;;;;;;;17.65;60.92;100714.00;20622245;28;20221;-79
2023/09/08 02:29:15;;;;;;;5.75;5.15;;;;;;;17.91;59.74;100708.56;20638560;28;20211;-79
2023/09/08 02:39:16;;;;;;;7.90;5.70;;;;;;;17.18;62.62;100709.88;20612815;28;20238;-79
2023/09/08 02:49:19;;;;;;;5.88;4.47;;;;;;;17.23;62.60;100720.22;20647381;28;20206;-78
2023/09/08 02:59:21;;;;;;;6.47;5.22;;;;;;;17.15;61.93;100718.31;20646760;28;20222;-79
2023/09/08 03:09:24;;;;;;;8.65;5.57;;;;;;;17.07;62.13;100720.16;20670338;23;20559;-79
2023/09/08 03:19:26;;;;;;;5.97;4.97;;;;;;;16.86;62.88;100714.69;20756823;28;20225;-80
2023/09/08 03:29:29;;;;;;;6.97;5.15;;;;;;;17.32;61.24;100708.66;20762760;28;20206;-79
2023/09/08 03:39:31;;;;;;;8.77;4.90;;;;;;;16.81;62.85;100699.91;20758421;28;20308;-79
2023/09/08 03:49:34;;;;;;;7.15;5.32;;;;;;;16.89;62.47;100700.97;20759569;28;20514;-79
2023/09/08 03:59:35;;;;;;;10.30;5.35;;;;;;;17.17;61.28;100699.69;20752806;28;20228;-79
2023/09/08 04:09:39;;;;;;;8.52;5.68;;;;;;;17.21;60.82;100700.63;20730564;28;20256;-78
2023/09/08 04:19:40;;;;;;;6.57;5.10;;;;;;;16.98;61.91;100710.16;20677408;28;20225;-78
2023/09/08 04:29:44;;;;;;;6.57;5.20;;;;;;;16.28;64.21;100704.81;20645628;28;20198;-79
2023/09/08 04:39:45;;;;;;;6.07;5.47;;;;;;;16.55;62.97;100702.38;20664548;28;20626;-80
2023/09/08 04:49:48;;;;;;;9.02;5.15;;;;;;;16.18;63.48;100705.31;20664437;28;20518;-78
2023/09/08 04:59:50;;;;;;;6.20;5.55;;;;;;;17.03;60.51;100707.00;20660760;28;20229;-80
2023/09/08 05:09:53;;;;;;;4.95;4.53;;;;;;;17.42;58.35;100697.53;20655978;28;20234;-80
2023/09/08 05:19:55;;;;;;;5.18;3.97;;;;;;;17.17;57.68;100708.25;20667320;28;20244;-80
2023/09/08 05:29:58;;;;;;;6.50;4.15;;;;;;;17.51;55.92;100701.06;20664155;28;20197;-79
2023/09/08 05:40:00;;;;;;;4.85;3.83;;;;;;;17.81;55.81;100692.84;20667845;28;20230;-78
2023/09/08 05:50:03;;;;;;;4.43;3.53;;;;;;;17.62;55.70;100704.16;20659455;28;20206;-79
2023/09/08 06:00:05;;;;;;;5.85;4.20;;;;;;;18.09;53.97;100706.13;20690472;28;20228;-77
2023/09/08 06:10:09;;;;;;;8.65;4.78;;;;;;;17.84;55.56;100692.09;20667418;28;20229;-79
2023/09/08 06:20:12;;;;;;;5.68;3.92;;;;;;;18.07;55.03;100694.28;20671680;28;20232;-78
2023/09/08 06:30:16;;;;;;;7.05;5.00;;;;;;;18.07;54.91;100708.53;20709743;28;20202;-78
2023/09/08 06:40:17;;;;;;;11.32;4.82;;;;;;;18.43;54.34;100702.47;20690506;28;20229;-79
2023/09/08 06:50:20;;;;;;;9.65;4.93;;;;;;;19.17;53.10;100706.03;20705680;28;20210;-78
2023/09/08 07:00:23;;;;;;;8.75;5.35;;;;;;;19.25;53.09;100693.53;20683546;28;20829;-79
2023/09/08 07:10:27;;;;;;;6.75;4.82;;;;;;;19.64;52.78;100699.97;20690371;28;20237;-78
2023/09/08 07:20:28;;;;;;;7.40;4.90;;;;;;;20.34;52.17;100698.63;20683563;28;20526;-80
2023/09/08 07:30:33;;;;;;;8.27;5.40;;;;;;;20.25;51.89;100700.97;20680783;28;20212;-80
2023/09/08 07:40:35;;;;;;;7.53;4.13;;;;;;;20.83;50.04;100703.38;20717054;28;20217;-78
2023/09/08 07:50:38;;;;;;;5.20;3.75;;;;;;;20.92;49.12;100709.59;20691344;28;20450;-80
2023/09/08 08:00:40;;;;;;;7.60;4.03;;;;;;;21.50;49.00;100715.56;20685104;28;20225;-79
2023/09/08 08:10:43;;;;;;;5.90;3.53;;;;;;;21.76;49.53;100694.53;20698811;28;20232;-79
2023/09/08 08:20:45;;;;;;;6.15;3.97;;;;;;;22.05;49.94;100690.69;20689509;28;20510;-80
2023/09/08 08:30:48;;;;;;;6.03;3.67;;;;;;;22.72;48.23;100689.44;20669292;28;20212;-80
2023/09/08 08:40:50;;;;;;;5.07;3.92;;;;;;;22.75;47.85;100692.31;20675083;28;20225;-79
2023/09/08 08:50:53;;;;;;;6.05;3.47;;;;;;;23.06;44.65;100689.97;20669732;28;20495;-78
2023/09/08 09:00:56;;;;;;;5.47;3.60;;;;;;;23.67;44.84;100688.03;20670305;28;20226;-80
2023/09/08 09:11:03;;;;;;;7.47;4.13;;;;;;;23.78;43.73;100688.84;20673164;28;20563;-79
2023/09/08 09:21:04;;;;;;;4.28;2.92;;;;;;;24.50;43.57;100676.00;20687401;28;20225;-77
2023/09/08 09:31:07;;;;;;;6.50;3.35;;;;;;;24.23;40.51;100675.66;20686798;28;20198;-80
2023/09/08 09:41:09;;;;;;;5.68;3.50;;;;;;;24.67;39.59;100672.25;20672813;28;20618;-78
2023/09/08 09:51:20;;;;;;;6.65;4.65;;;;;;;25.30;38.92;100664.50;20665460;28;20202;-80
2023/09/08 10:01:23;;;;;;;4.05;3.65;;;;;;;25.17;39.13;100666.22;20666868;28;20228;-78
2023/09/08 10:11:29;;;;;;;4.15;3.50;;;;;;;25.51;38.79;100667.22;20668195;28;20392;-78
2023/09/08 10:21:34;;;;;;;4.07;3.03;;;;;;;25.54;38.61;100654.84;20661996;28;20630;-80
2023/09/08 10:31:37;;;;;;;4.20;3.40;;;;;;;26.25;37.45;100659.97;20668947;28;20517;-80
2023/09/08 10:41:40;;;;;;;3.88;3.30;;;;;;;26.39;36.41;100650.31;20668588;28;20252;-80
2023/09/08 10:51:44;;;;;;;3.90;3.33;;;;;;;26.66;37.65;100642.56;20717999;28;20210;-80
2023/09/08 11:01:48;;;;;;;3.60;3.22;;;;;;;26.47;35.12;100651.06;20657246;28;20713;-80
2023/09/08 11:11:51;;;;;;;5.45;2.92;;;;;;;26.56;34.07;100642.69;20655985;28;20241;-78
2023/09/08 11:21:53;;;;;;;4.88;2.90;;;;;;;27.14;33.56;100632.84;20677744;28;20218;-78
2023/09/08 11:31:56;;;;;;;3.88;2.78;;;;;;;27.39;32.06;100633.28;20671613;28;20595;-80
2023/09/08 11:42:01;;;;;;;5.07;2.70;;;;;;;27.02;32.48;100627.63;20675221;28;20222;-77
2023/09/08 11:52:05;;;;;;;3.38;2.70;;;;;;;27.52;31.52;100624.81;20678145;28;20194;-80
2023/09/08 12:02:07;;;;;;;3.00;2.60;;;;;;;27.63;31.25;100619.66;20681809;28;20232;-81
2023/09/08 12:12:13;;;;;;;4.57;2.80;;;;;;;28.06;29.99;100608.09;20682413;28;20228;-78
2023/09/08 12:22:17;;;;;;;3.47;2.70;;;;;;;27.52;31.56;100613.25;20664094;28;20238;-78
2023/09/08 12:32:20;;;;;;;2.83;2.50;;;;;;;27.40;29.41;100605.19;20683139;28;20586;-76
2023/09/08 12:42:25;;;;;;;3.17;2.38;;;;;;;28.49;28.99;100600.66;20682947;28;20229;-81
2023/09/08 12:52:28;;;;;;;6.25;2.83;;;;;;;27.84;29.56;100591.63;20689371;28;20405;-80
2023/09/08 13:02:30;;;;;;;3.10;2.80;;;;;;;27.38;30.44;100587.47;20668635;28;20217;-78
2023/09/08 13:12:33;;;;;;;5.45;2.63;;;;;;;28.13;30.03;100572.44;20679577;28;20231;-79
2023/09/08 13:22:35;;;;;;;6.88;2.63;;;;;;;28.62;29.14;100572.63;20706440;28;20523;-82
2023/09/08 13:32:38;;;;;;;3.30;2.90;;;;;;;28.57;29.77;100564.50;20682780;28;20545;-76
2023/09/08 13:42:40;;;;;;;3.45;2.78;;;;;;;28.78;28.54;100570.63;20667407;28;20316;-79
2023/09/08 13:52:43;;;;;;;3.75;2.88;;;;;;;28.13;29.29;100560.88;20655719;28;20210;-77
2023/09/08 14:02:46;;;;;;;3.35;2.53;;;;;;;28.75;28.01;100564.91;20659125;28;20618;-80
2023/09/08 14:12:49;;;;;;;4.88;2.92;;;;;;;28.66;27.43;100559.72;20650260;28;20230;-80
2023/09/08 14:22:50;;;;;;;4.55;2.75;;;;;;;28.53;28.78;100555.06;20649541;28;20221;-78
2023/09/08 14:32:54;;;;;;;3.67;2.85;;;;;;;28.22;29.19;100540.81;20653961;28;20293;-79
2023/09/08 14:42:55;;;;;;;2.35;2.15;;;;;;;29.07;28.69;100538.91;20650223;28;20225;-80
2023/09/08 14:52:59;;;;;;;3.65;3.15;;;;;;;28.61;28.78;100542.88;20671310;28;20317;-82
2023/09/08 15:03:01;;;;;;;2.83;2.60;;;;;;;28.21;30.13;100539.19;20673149;28;20226;-80
2023/09/08 15:13:05;;;;;;;6.20;4.07;;;;;;;28.85;28.96;100534.88;20656570;28;20222;-81
2023/09/08 15:23:06;;;;;;;3.15;2.85;;;;;;;28.70;28.81;100536.47;20656735;28;20234;-82
2023/09/08 15:33:10;;;;;;;3.85;3.05;;;;;;;28.60;28.58;100520.16;20659839;28;20202;-81
2023/09/08 15:43:11;;;;;;;4.20;3.25;;;;;;;27.84;30.69;100513.53;20653569;28;20217;-79
2023/09/08 15:53:15;;;;;;;3.38;3.08;;;;;;;28.33;29.86;100512.47;20664661;28;20221;-82
2023/09/08 16:03:16;;;;;;;3.53;2.85;;;;;;;28.04;30.21;100520.97;20660818;28;20226;-81
2023/09/08 16:13:20;;;;;;;4.57;2.92;;;;;;;28.26;29.08;100524.22;20642230;28;20658;-84
2023/09/08 16:23:22;;;;;;;5.32;2.92;;;;;;;28.32;30.18;100516.63;20662899;28;20222;-83
2023/09/08 16:33:25;;;;;;;6.18;4.63;;;;;;;28.10;30.45;100504.69;20650683;28;20221;-85
2023/09/08 16:43:27;;;;;;;22.40;17.63;;;;;;;27.98;30.78;100511.16;20647797;28;20240;-86
2023/09/08 16:53:32;;;;;;;4.57;3.92;;;;;;;27.69;32.70;100510.06;20643553;28;20224;-80
2023/09/08 17:03:33;;;;;;;7.80;3.67;;;;;;;27.74;31.13;100506.66;20635976;28;20225;-77
2023/09/08 17:13:36;;;;;;;7.85;3.17;;;;;;;27.31;33.60;100521.13;20640697;28;20252;-83
2023/09/08 17:23:38;;;;;;;5.40;4.07;;;;;;;26.88;36.05;100512.34;20637786;28;20711;-78
2023/09/08 17:33:41;;;;;;;5.65;4.38;;;;;;;26.33;39.36;100520.16;20633823;28;20295;-82
2023/09/08 17:43:43;;;;;;;7.57;3.80;;;;;;;25.82;41.57;100531.91;20644933;28;20221;-84
2023/09/08 17:53:47;;;;;;;7.13;4.22;;;;;;;25.47;43.33;100542.50;20654439;28;20194;-85
2023/09/08 18:03:49;;;;;;;4.82;4.20;;;;;;;25.15;44.94;100541.97;20653343;28;20272;-78
2023/09/08 18:13:52;;;;;;;6.63;4.35;;;;;;;24.91;45.51;100538.88;20650391;28;20230;-80
2023/09/08 18:23:54;;;;;;;10.55;5.03;;;;;;;24.48;46.36;100546.13;20661911;28;20225;-82
2023/09/08 18:33:58;;;;;;;13.73;10.82;;;;;;;24.32;47.27;100551.53;20670323;28;20208;-80
2023/09/08 18:44:02;;;;;;;8.63;5.30;;;;;;;24.01;49.11;100568.50;20651523;28;20481;-80
2023/09/08 18:54:06;;;;;;;8.98;5.47;;;;;;;23.66;50.57;100566.53;20664684;28;20302;-80
2023/09/08 19:04:08;;;;;;;6.40;5.38;;;;;;;23.47;50.59;100570.63;20636637;28;20229;-78
2023/09/08 19:14:11;;;;;;;7.97;6.05;;;;;;;22.99;50.95;100578.03;20664091;28;20225;-79
2023/09/08 19:24:13;;;;;;;9.98;7.95;;;;;;;23.10;50.61;100576.00;20663497;28;20218;-79
2023/09/08 19:34:17;;;;;;;9.43;6.50;;;;;;;22.83;51.33;100582.06;20656485;28;20292;-81
2023/09/08 19:44:18;;;;;;;9.48;7.10;;;;;;;22.47;51.84;100571.75;20667063;28;20228;-80
2023/09/08 19:54:22;;;;;;;10.98;6.18;;;;;;;22.02;53.55;100576.03;20667566;28;20213;-81
2023/09/08 20:04:25;;;;;;;8.40;6.72;;;;;;;21.97;53.38;100580.09;20670813;28;20225;-81
2023/09/08 20:14:29;;;;;;;8.60;6.82;;;;;;;22.31;52.89;100574.94;20666903;28;20646;-80
2023/09/08 20:24:30;;;;;;;6.43;5.18;;;;;;;21.71;53.88;100577.44;20656416;28;20201;-81
2023/09/08 20:34:33;;;;;;;13.95;6.75;;;;;;;21.54;54.68;100583.88;20652457;28;20202;-81
2023/09/08 20:44:35;;;;;;;9.27;5.57;;;;;;;21.79;53.98;100582.03;20651390;28;20727;-82
2023/09/08 20:54:42;;;;;;;10.38;6.88;;;;;;;21.35;54.48;100582.09;20662209;28;20225;-82
2023/09/08 21:04:45;;;;;;;10.38;6.40;;;;;;;21.25;54.15;100583.66;20661461;28;20502;-81
2023/09/08 21:14:48;;;;;;;8.23;5.80;;;;;;;21.76;51.76;100577.06;20656233;28;20264;-80
2023/09/08 21:24:50;;;;;;;8.60;6.20;;;;;;;21.26;52.90;100584.50;20668945;28;20607;-82
2023/09/08 21:34:53;;;;;;;8.63;5.95;;;;;;;21.29;52.75;100586.56;20662214;28;20492;-81
2023/09/08 21:44:55;;;;;;;9.32;6.25;;;;;;;21.02;53.85;100580.16;20653970;28;20197;-81
2023/09/08 21:54:58;;;;;;;11.57;6.88;;;;;;;21.27;52.59;100574.69;20662528;28;20204;-81
2023/09/08 22:05:00;;;;;;;7.97;6.05;;;;;;;21.34;52.34;100581.28;20665530;28;20214;-81
2023/09/08 22:15:04;;;;;;;8.77;6.50;;;;;;;21.00;54.55;100582.59;20647934;28;20229;-82
2023/09/08 22:25:06;;;;;;;8.05;5.75;;;;;;;20.47;56.11;100582.00;20662069;28;20260;-82
2023/09/08 22:35:10;;;;;;;8.57;6.72;;;;;;;20.66;55.57;100584.69;20657785;28;20221;-80
2023/09/08 22:45:12;;;;;;;8.30;6.35;;;;;;;20.67;55.67;100584.28;20667022;28;20201;-83
2023/09/08 22:55:15;;;;;;;9.70;6.18;;;;;;;20.38;56.21;100579.47;20664882;28;20224;-82
2023/09/08 23:05:17;;;;;;;8.05;6.30;;;;;;;20.38;56.28;100573.75;20655886;28;20202;-80
2023/09/08 23:15:20;;;;;;;9.48;5.97;;;;;;;19.73;58.80;100571.22;20668268;28;20236;-81
2023/09/08 23:25:22;;;;;;;9.05;6.15;;;;;;;19.52;59.74;100576.59;20673433;28;20621;-81
2023/09/08 23:35:25;;;;;;;7.72;5.95;;;;;;;19.92;58.75;100562.50;20701290;28;20225;-81
2023/09/08 23:45:27;;;;;;;6.63;5.82;;;;;;;20.19;56.33;100559.63;20694541;28;20256;-80
2023/09/08 23:55:30;;;;;;;8.13;5.70;;;;;;;19.90;57.58;100559.22;20683390;28;20232;-80
